Pagrindinis puslapis
METAR-TAF:

METAR-TAF

Oro uostai :

Sohagas, Egiptas

platuma: 26-20-25N, ilguma: 31-44-20E, Aukštis: 70 m

Dabartinis oras

Ataskaita buvo paskelbta 32 minutes, ne 04:00 UTC
Vėjas 4 kt iš Pietvakarių
Temperatūra 11°C
Drėgmė 71%
Slėgis 1008 hPa
Matomumas 10 km arba daugiau
nėra debesų žemiau 1500 m ir nėra kamuolinių lietaus debesų

METAR: HESG 300400Z 23004KT CAVOK 11/06 Q1008 NOSIG

Laikas: 06:32 (04:32 UTC)

Prognozė

Ataskaita buvo paskelbta 5 valandos ir 32 minutes, ne 23:00 UTC
Prognozė galioja nuo 30 metu 00 UTC su 31 metu 06 UTC
Vėjas 8 kt iš Šiaurės Vakarų
Matomumas 10 km arba daugiau
nėra debesų žemiau 1500 m ir nėra kamuolinių lietaus debesų
Laikinai
nuo 30 metu 04 UTC su 30 metu 10 UTC
Matomumas: 4000 m
migla

TAF: HESG 292300Z 3000/3106 32008KT CAVOK TEMPO 3004/3010 4000 HZ

Orai ataskaitas ir orų prognozės (METAR, TAF).

turimą stotys yra geltonos ir raudonos taškus žemėlapyje.

Perkelti pele per norėdami pamatyti stoties vardą.

Tada spustelėkite, norėdami matyti oro stebėjimo ir prognozės.

Norėdami pakeisti žemėlapį: spustelėkite ant žalios mygtukų su juodo kryžiaus žemyn,; žalią mygtuką su brūkšneliu, jei norite nutolinti; arba žalių rodyklių gretimoms žemėlapius.


METAR-TAF: